This is the latest recevied weather packets stored in our database for station/object WK7G. If no packets are shown the sender has not sent any weather packets the latest 10 day(s).
| Time | Temp. | Humidity | Pressure | Rain* | Wind** | Luminosity | Snow |
|---|---|---|---|---|---|---|---|
| 1777472978 | 2.78° C | 72% | 1013.9 hPa | 0 mm | - | 232 W/m² | - |
| 1777472675 | 1.67° C | 72% | 1013.9 hPa | 0 mm | - | 239 W/m² | - |
| 1777472371 | 1.11° C | 73% | 1014 hPa | 0 mm | - | 223 W/m² | - |
| 1777472070 | 0.56° C | 75% | 1014 hPa | 0 mm | - | 140 W/m² | - |
| 1777471765 | 0° C | 78% | 1013.7 hPa | 0 mm | - | 122 W/m² | - |
| 1777471462 | 0° C | 78% | 1013.9 hPa | 0 mm | - | 106 W/m² | - |
| 1777471158 | -0.56° C | 78% | 1014 hPa | 0 mm | - | 97 W/m² | - |
| 1777470855 | -0.56° C | 78% | 1013.9 hPa | 0 mm | - | 91 W/m² | - |
| 1777470552 | -0.56° C | 78% | 1013.7 hPa | 0 mm | - | 83 W/m² | - |
| 1777470248 | -0.56° C | 78% | 1014 hPa | 0 mm | - | 78 W/m² | - |
| 1777469944 | -0.56° C | 77% | 1013.9 hPa | 0 mm | - | 71 W/m² | - |
| 1777469640 | -0.56° C | 78% | 1014 hPa | 0 mm | - | 68 W/m² | - |
| 1777469335 | -1.11° C | 79% | 1014 hPa | 0 mm | - | 59 W/m² | - |
| 1777469031 | -1.11° C | 79% | 1014.1 hPa | 0 mm | - | 52 W/m² | - |
| 1777468726 | -0.56° C | 77% | 1014.1 hPa | 0 mm | - | 47 W/m² | - |
| 1777468423 | -0.56° C | 75% | 1014.1 hPa | 0 mm | - | 39 W/m² | - |
| 1777468119 | -0.56° C | 76% | 1013.9 hPa | 0 mm | - | 32 W/m² | - |
| 1777467815 | -1.11° C | 79% | 1013.9 hPa | 0 mm | - | 28 W/m² | - |
| 1777467511 | -1.67° C | 80% | 1013.7 hPa | 0 mm | - | 27 W/m² | - |
| 1777467206 | -1.67° C | 80% | 1013.9 hPa | 0 mm | - | 26 W/m² | - |
| 1777466904 | -1.67° C | 80% | 1013.6 hPa | 0 mm | - | 22 W/m² | - |
| 1777466601 | -1.67° C | 79% | 1013.7 hPa | 0 mm | - | 16 W/m² | - |
| 1777466298 | -1.67° C | 80% | 1013.5 hPa | 0 mm | - | 12 W/m² | - |
| 1777465994 | -1.67° C | 79% | 1013.5 hPa | 0 mm | - | 9 W/m² | - |
| 1777465690 | -1.11° C | 78% | 1013.6 hPa | 0 mm | - | 6 W/m² | - |
* Rain latest hour (hover to see other rain measurements)
** Current wind speed in m/s (hover to see current wind gust speed)